createdAt,value
2023-01-08T00:02:23.076Z,98383.38
2023-01-08T00:07:24.725Z,98373.69
2023-01-08T00:12:26.373Z,98380.28
2023-01-08T00:17:28.043Z,98382.22
2023-01-08T00:22:29.775Z,98369.41
2023-01-08T00:27:31.481Z,98358.66
2023-01-08T00:32:33.287Z,98366.13
2023-01-08T00:37:35.003Z,98358.06
2023-01-08T00:42:36.679Z,98360.88
2023-01-08T00:47:38.339Z,98356.78
2023-01-08T00:52:40.068Z,98368.38
2023-01-08T00:57:41.733Z,98373.56
2023-01-08T01:02:43.857Z,98359.03
2023-01-08T01:07:46.104Z,98359.03
2023-01-08T01:12:47.734Z,98351.81
2023-01-08T01:17:49.479Z,98353.78
2023-01-08T01:22:51.360Z,98355.88
2023-01-08T01:27:53.006Z,98353.78
2023-01-08T01:32:55.336Z,98340.47
2023-01-08T01:37:56.988Z,98337.44
2023-01-08T01:42:58.624Z,98334.19
2023-01-08T01:48:02.543Z,98327.84
2023-01-08T01:53:17.622Z,98323.41
2023-01-08T01:58:30.049Z,98321.59
2023-01-08T02:03:36.792Z,98322.72
2023-01-08T02:09:07.449Z,98315.31
2023-01-08T02:14:17.565Z,98320.28
2023-01-08T02:19:41.017Z,98319.69
2023-01-08T02:25:16.552Z,98319.22
2023-01-08T02:30:19.128Z,98312.69
2023-01-08T02:35:20.916Z,98311.81
2023-01-08T02:40:43.505Z,98304.44
2023-01-08T02:45:52.803Z,98291.47
2023-01-08T02:51:11.978Z,98295.56
2023-01-08T02:56:17.141Z,98303.06
2023-01-08T03:01:22.419Z,98300.41
2023-01-08T03:06:26.443Z,98304.69
2023-01-08T03:11:36.185Z,98302.56
2023-01-08T03:16:37.831Z,98284.44
2023-01-08T03:21:42.544Z,98284.78
2023-01-08T03:26:47.086Z,98279.69
2023-01-08T03:31:50.638Z,98280.53
2023-01-08T03:36:58.126Z,98265.84
2023-01-08T03:42:04.923Z,98261.03
2023-01-08T03:47:10.484Z,98247.31
2023-01-08T03:52:23.234Z,98244.22
2023-01-08T03:57:25.038Z,98252.94
2023-01-08T04:02:26.793Z,98233.78
2023-01-08T04:07:29.055Z,98234.56
2023-01-08T04:12:30.758Z,98223.88
2023-01-08T04:17:32.365Z,98220.69
2023-01-08T04:22:34.141Z,98216.59
2023-01-08T04:27:35.783Z,98211.63
2023-01-08T04:32:37.424Z,98212.25
2023-01-08T04:37:39.061Z,98201.25
2023-01-08T04:42:40.748Z,98199.06
2023-01-08T04:47:42.397Z,98200.97
2023-01-08T04:52:44.046Z,98194.84
2023-01-08T04:57:46.192Z,98190.31
2023-01-08T05:02:48.082Z,98184.41
2023-01-08T05:07:49.791Z,98177.31
2023-01-08T05:12:51.620Z,98168.47
2023-01-08T05:18:00.706Z,98178.66
2023-01-08T05:23:02.637Z,98179.56
2023-01-08T05:28:04.448Z,98174.38
2023-01-08T05:33:06.118Z,98168.31
2023-01-08T05:38:08.243Z,98170.47
2023-01-08T05:43:09.916Z,98159.50
2023-01-08T05:48:11.567Z,98165.84
2023-01-08T05:53:13.197Z,98163.72
2023-01-08T05:58:19.093Z,98165.28
2023-01-08T06:03:22.430Z,98165.19
2023-01-08T06:08:24.039Z,98157.88
2023-01-08T06:13:25.702Z,98152.38
2023-01-08T06:18:28.755Z,98139.59
2023-01-08T06:23:30.496Z,98145.91
2023-01-08T06:28:32.616Z,98139.59
2023-01-08T06:33:34.434Z,98132.34
2023-01-08T06:38:36.952Z,98132.94
2023-01-08T06:43:39.102Z,98141.31
2023-01-08T06:48:40.762Z,98137.03
2023-01-08T06:53:42.386Z,98123.53
2023-01-08T06:58:44.083Z,98135.72
2023-01-08T07:03:46.322Z,98132.34
2023-01-08T07:08:48.738Z,98136.69
2023-01-08T07:13:50.911Z,98130.88
2023-01-08T07:18:52.577Z,98138.50
2023-01-08T07:23:54.232Z,98141.44
2023-01-08T07:28:56.006Z,98137.66
2023-01-08T07:33:57.630Z,98130.72
2023-01-08T07:38:59.378Z,98135.53
2023-01-08T07:44:01.065Z,98143.34
2023-01-08T07:49:02.778Z,98137.00
2023-01-08T07:54:04.716Z,98131.03
2023-01-08T07:59:06.449Z,98119.72
2023-01-08T08:04:08.146Z,98112.06
2023-01-08T08:09:09.910Z,98096.09
2023-01-08T08:14:11.621Z,98089.56
2023-01-08T08:19:13.635Z,98075.84
2023-01-08T08:24:15.289Z,98069.00
2023-01-08T08:29:17.233Z,98063.53
2023-01-08T08:34:21.116Z,98061.81
2023-01-08T08:39:22.914Z,98066.38
2023-01-08T08:44:24.619Z,98063.59
2023-01-08T08:49:26.458Z,98069.59
2023-01-08T08:54:28.142Z,98066.66
2023-01-08T08:59:29.854Z,98048.31
2023-01-08T09:04:34.804Z,98042.44
2023-01-08T09:09:36.511Z,98037.28
2023-01-08T09:14:38.188Z,98040.78
2023-01-08T09:19:39.940Z,98034.91
2023-01-08T09:24:41.634Z,98039.25
2023-01-08T09:29:43.397Z,98034.50
2023-01-08T09:34:45.138Z,98031.31
2023-01-08T09:39:51.153Z,98031.47
2023-01-08T09:44:57.755Z,98020.78
2023-01-08T09:50:03.169Z,98017.69
2023-01-08T09:55:13.939Z,98003.78
2023-01-08T10:00:19.588Z,97990.72
2023-01-08T10:05:21.473Z,97972.19
2023-01-08T10:10:29.887Z,97968.38
2023-01-08T10:15:31.677Z,97953.84
2023-01-08T10:20:34.231Z,97949.69
2023-01-08T10:25:49.216Z,97952.91
2023-01-08T10:30:52.784Z,97950.41
2023-01-08T10:36:08.055Z,97936.59
2023-01-08T10:41:12.688Z,97924.66
2023-01-08T10:46:23.356Z,97912.06
2023-01-08T10:51:28.450Z,97919.38
2023-01-08T10:56:40.626Z,97904.28
2023-01-08T11:01:47.986Z,97896.94
2023-01-08T11:06:50.249Z,97894.03
2023-01-08T11:11:52.216Z,97865.66
2023-01-08T11:16:55.287Z,97868.72
2023-01-08T11:22:24.697Z,97861.34
2023-01-08T11:27:37.101Z,97843.47
2023-01-08T11:32:49.346Z,97841.81
2023-01-08T11:37:52.347Z,97829.59
2023-01-08T11:43:18.876Z,97830.41
2023-01-08T11:48:35.957Z,97818.16
2023-01-08T11:54:00.253Z,97797.72
2023-01-08T11:59:33.741Z,97790.72
2023-01-08T12:04:38.258Z,97788.63
2023-01-08T12:09:46.373Z,97759.50
2023-01-08T12:15:33.255Z,97755.09
2023-01-08T12:20:34.840Z,97752.25
2023-01-08T12:26:12.645Z,97757.78
2023-01-08T12:31:38.545Z,97759.78
2023-01-08T12:36:46.076Z,97766.09
2023-01-08T12:41:49.888Z,97762.38
2023-01-08T12:46:54.327Z,97750.56
2023-01-08T12:52:27.938Z,97750.56
2023-01-08T12:57:39.031Z,97745.03
2023-01-08T13:02:52.048Z,97751.53
2023-01-08T13:08:27.799Z,97744.03
2023-01-08T13:13:35.562Z,97740.09
2023-01-08T13:18:38.432Z,97750.81
2023-01-08T13:23:40.180Z,97748.00
2023-01-08T13:28:44.911Z,97748.88
2023-01-08T13:33:48.860Z,97748.94
2023-01-08T13:39:10.591Z,97739.28
2023-01-08T13:44:29.044Z,97750.03
2023-01-08T13:49:53.429Z,97755.84
2023-01-08T13:54:55.336Z,97758.38
2023-01-08T13:59:59.129Z,97762.22
2023-01-08T14:05:03.400Z,97763.09
2023-01-08T14:10:13.439Z,97755.16
2023-01-08T14:15:23.491Z,97766.91
2023-01-08T14:20:38.549Z,97784.16
2023-01-08T14:25:41.724Z,97777.47
2023-01-08T14:30:54.753Z,97767.91
2023-01-08T14:35:57.335Z,97787.75
2023-01-08T14:41:09.735Z,97772.00
2023-01-08T14:46:26.252Z,97774.66
2023-01-08T14:51:30.838Z,97779.78
2023-01-08T14:56:35.328Z,97777.34
2023-01-08T15:01:37.617Z,97778.03
2023-01-08T15:06:39.558Z,97777.97
2023-01-08T15:11:53.360Z,97782.03
2023-01-08T15:17:00.253Z,97775.19
2023-01-08T15:22:02.552Z,97766.44
2023-01-08T15:27:10.387Z,97772.06
2023-01-08T15:32:15.738Z,97775.59
2023-01-08T15:37:17.402Z,97771.31
2023-01-08T15:42:48.550Z,97771.38
2023-01-08T15:47:50.262Z,97788.31
2023-01-08T15:52:52.126Z,97788.50
2023-01-08T15:57:56.063Z,97797.94
2023-01-08T16:03:00.007Z,97792.59
2023-01-08T16:08:01.936Z,97785.56
2023-01-08T16:13:04.984Z,97780.44
2023-01-08T16:18:06.945Z,97777.78
2023-01-08T16:23:08.623Z,97779.84
2023-01-08T16:28:10.509Z,97776.41
2023-01-08T16:33:12.340Z,97782.69
2023-01-08T16:38:14.616Z,97785.63
2023-01-08T16:43:16.976Z,97790.69
2023-01-08T16:48:19.016Z,97795.03
2023-01-08T16:53:22.122Z,97800.16
2023-01-08T16:58:24.116Z,97808.50
2023-01-08T17:03:25.904Z,97812.06
2023-01-08T17:08:28.682Z,97814.59
2023-01-08T17:13:30.448Z,97812.16
2023-01-08T17:18:33.082Z,97821.09
2023-01-08T17:23:36.143Z,97819.31
2023-01-08T17:28:40.112Z,97818.81
2023-01-08T17:33:42.155Z,97823.22
2023-01-08T17:38:44.269Z,97829.53
2023-01-08T17:43:46.473Z,97829.28
2023-01-08T17:48:48.611Z,97822.50
2023-01-08T17:53:50.634Z,97811.81
2023-01-08T17:58:53.913Z,97800.38
2023-01-08T18:03:56.223Z,97798.22
2023-01-08T18:08:58.300Z,97796.00
2023-01-08T18:14:02.623Z,97801.63
2023-01-08T18:19:04.660Z,97797.19
2023-01-08T18:24:07.509Z,97799.38
2023-01-08T18:29:09.947Z,97804.34
2023-01-08T18:34:15.220Z,97807.78
2023-01-08T18:39:17.412Z,97800.16
2023-01-08T18:44:21.152Z,97797.63
2023-01-08T18:49:23.999Z,97801.53
2023-01-08T18:54:26.340Z,97792.16
2023-01-08T18:59:29.734Z,97787.09
2023-01-08T19:04:31.769Z,97782.06
2023-01-08T19:09:33.640Z,97778.19
2023-01-08T19:14:37.360Z,97773.19
2023-01-08T19:19:39.815Z,97774.13
2023-01-08T19:24:43.428Z,97769.31
2023-01-08T19:29:45.644Z,97761.19
2023-01-08T19:34:48.261Z,97755.34
2023-01-08T19:39:51.625Z,97752.53
2023-01-08T19:44:53.583Z,97752.31
2023-01-08T19:49:55.581Z,97740.47
2023-01-08T19:54:58.717Z,97738.94
2023-01-08T20:00:00.666Z,97745.34
2023-01-08T20:05:02.927Z,97736.22
2023-01-08T20:10:05.911Z,97731.88
2023-01-08T20:15:08.625Z,97732.28
2023-01-08T20:20:12.075Z,97723.56
2023-01-08T20:25:14.545Z,97719.22
2023-01-08T20:30:17.128Z,97712.44
2023-01-08T20:35:19.616Z,97699.47
2023-01-08T20:40:21.858Z,97689.34
2023-01-08T20:45:24.008Z,97673.31
2023-01-08T20:50:25.878Z,97660.88
2023-01-08T20:55:27.995Z,97647.94
2023-01-08T21:00:30.110Z,97646.03
2023-01-08T21:05:34.030Z,97634.34
2023-01-08T21:10:36.231Z,97616.22
2023-01-08T21:15:38.162Z,97581.72
2023-01-08T21:20:39.948Z,97577.53
2023-01-08T21:25:41.722Z,97555.78
2023-01-08T21:30:43.460Z,97569.81
2023-01-08T21:35:45.438Z,97571.47
2023-01-08T21:40:47.119Z,97565.53
2023-01-08T21:46:01.455Z,97576.31
2023-01-08T21:51:03.219Z,97570.84
2023-01-08T21:56:05.130Z,97572.50
2023-01-08T22:01:10.123Z,97574.72
2023-01-08T22:06:11.927Z,97568.00
2023-01-08T22:11:13.625Z,97563.50
2023-01-08T22:16:15.293Z,97556.69
2023-01-08T22:21:17.144Z,97542.75
2023-01-08T22:26:20.289Z,97538.88
2023-01-08T22:31:22.082Z,97530.09
2023-01-08T22:36:23.943Z,97545.41
2023-01-08T22:41:25.771Z,97528.06
2023-01-08T22:46:27.544Z,97537.13
2023-01-08T22:51:29.296Z,97531.38
2023-01-08T22:56:30.976Z,97512.50
2023-01-08T23:01:32.643Z,97517.97
2023-01-08T23:06:34.702Z,97512.44
2023-01-08T23:11:36.456Z,97498.44
2023-01-08T23:16:38.203Z,97487.00
2023-01-08T23:21:40.386Z,97480.09
2023-01-08T23:26:42.735Z,97481.28
2023-01-08T23:31:45.020Z,97461.28
2023-01-08T23:36:46.713Z,97449.09
2023-01-08T23:41:48.387Z,97428.31
2023-01-08T23:46:50.549Z,97438.72
2023-01-08T23:51:52.306Z,97433.53
2023-01-08T23:56:54.534Z,97411.41
